Česky Dansk Deutsch English Español Suomi Français Magyar Italiano Nederlands norsk Polski Português svenska Türkçe

 

Het Weer

Esbjerg (Denemarken)

03:20, 22 augustus 2016 (GMT)

NWNNE
WE
SWSSE
Home            
Esbjerg Billund Lufthavn Vandel Vamdrup Stauning Lufthavn Skrydstrup Westerland / Sylt Karup Lindtorp Airport Gluecksburg / Meierwik Soenderborg Lufthavn Odense / Beldringe Eggebek Skive Lufthavn Schleswig-Jagel Sydfyns Flyveplads Hohn Tirstrup Hadsund Kiel-Holtenau Kiel / Holtenau Civilian Thisted Lufthavn Itzehoe

Om een weerknop op uw website of weblog te plaatsen, copieer onderstaande code en plak die in uw pagina. In het eerste vakje staat HTML-code, in het tweede vakje UBB-code.


Add to Google

Details

Wind speed:2 bf, 4 kn, 2.1 m/s, 4.6 miles/h, 7.4 km/h
Wind direction:SSW, 200°
Clouds:Durchbrochene Bewölkung at 1500 ft, 457 m
Temperature:15°C, 59°F
Dew-point:14°C, 57°F
Atmospheric pressure:1017 hPa, 762.8 mmHg, 30.03 inHg, 1.004 atm
Relative humidity:93.7 %
METAR:EKEB 220320Z AUTO 20004KT 9999NDV BKN015 15/14 Q1017

Snelkoppelingen

Actuele weersinformatie van de hele wereld. Voeg locaties toe met het plus (+) symbool. Deze snelkoppelingen kunnen worden toegevoegd aan Google.

Lid van de Technetium groep

website free tracking
StatCounter NetStat W3C Validator

19-08-2022 10:32:05
astro.technetium.be money.technetium.be phote.technetium.be tafeltennistafel.technetium.be www.ligfiets.net